createdAt,value
2018-02-02T00:00:44.405Z,2.90
2018-02-02T00:01:44.374Z,4.20
2018-02-02T00:02:44.364Z,6.70
2018-02-02T00:03:44.359Z,3.60
2018-02-02T00:04:44.342Z,2.70
2018-02-02T00:05:44.367Z,2.10
2018-02-02T00:06:44.343Z,3.20
2018-02-02T00:07:44.370Z,3.60
2018-02-02T00:08:44.305Z,3.40
2018-02-02T00:09:44.308Z,2.20
2018-02-02T00:10:44.307Z,3.70
2018-02-02T00:11:44.271Z,2.60
2018-02-02T00:12:44.262Z,3.40
2018-02-02T00:13:44.244Z,4.00
2018-02-02T00:14:44.254Z,3.80
2018-02-02T00:15:44.272Z,3.30
2018-02-02T00:16:44.223Z,3.40
2018-02-02T00:17:44.208Z,3.90
2018-02-02T00:18:44.205Z,3.30
2018-02-02T00:19:44.215Z,3.60
2018-02-02T00:20:44.193Z,3.20
2018-02-02T00:21:44.163Z,3.10
2018-02-02T00:22:44.218Z,2.00
2018-02-02T00:23:44.140Z,3.40
2018-02-02T00:24:44.132Z,3.30
2018-02-02T00:25:44.125Z,3.80
2018-02-02T00:26:44.141Z,1.80
2018-02-02T00:27:44.110Z,3.30
2018-02-02T00:28:44.089Z,3.80
2018-02-02T00:29:44.086Z,2.90
2018-02-02T00:30:44.091Z,3.90
2018-02-02T00:31:44.098Z,2.90
2018-02-02T00:32:44.055Z,5.00
2018-02-02T00:33:44.037Z,3.00
2018-02-02T00:34:44.037Z,4.60
2018-02-02T00:35:44.018Z,2.50
2018-02-02T00:36:44.012Z,3.10
2018-02-02T00:37:44.017Z,2.60
2018-02-02T00:38:44.017Z,2.50
2018-02-02T00:39:43.982Z,3.10
2018-02-02T00:40:43.970Z,2.90
2018-02-02T00:41:43.958Z,2.30
2018-02-02T00:42:43.986Z,2.40
2018-02-02T00:43:43.932Z,2.90
2018-02-02T00:44:43.923Z,2.50
2018-02-02T00:45:43.913Z,2.10
2018-02-02T00:46:43.917Z,2.80
2018-02-02T00:47:43.917Z,1.90
2018-02-02T00:48:43.892Z,1.90
2018-02-02T00:49:43.870Z,1.90
2018-02-02T00:50:43.896Z,3.60
2018-02-02T00:51:43.844Z,3.40
2018-02-02T00:52:43.863Z,4.10
2018-02-02T00:53:43.874Z,4.40
2018-02-02T00:54:43.820Z,2.40
2018-02-02T00:55:43.883Z,3.60
2018-02-02T00:56:43.833Z,2.40
2018-02-02T00:57:43.802Z,2.30
2018-02-02T00:58:43.800Z,2.20
2018-02-02T00:59:43.767Z,2.00
2018-02-02T01:00:43.766Z,3.40
2018-02-02T01:01:43.746Z,2.30
2018-02-02T01:02:43.752Z,1.80
2018-02-02T01:03:43.735Z,2.30
2018-02-02T01:04:43.707Z,3.20
2018-02-02T01:05:43.705Z,2.70
2018-02-02T01:06:43.689Z,2.00
2018-02-02T01:07:43.717Z,2.50
2018-02-02T01:08:43.719Z,2.80
2018-02-02T01:09:43.680Z,3.80
2018-02-02T01:10:43.646Z,2.70
2018-02-02T01:11:43.649Z,3.10
2018-02-02T01:12:43.630Z,2.10
2018-02-02T01:13:43.612Z,1.80
2018-02-02T01:14:43.624Z,3.60
2018-02-02T01:15:43.593Z,2.40
2018-02-02T01:16:43.579Z,2.10
2018-02-02T01:17:43.585Z,2.10
2018-02-02T01:18:43.577Z,3.70
2018-02-02T01:19:43.565Z,2.20
2018-02-02T01:20:43.554Z,1.80
2018-02-02T01:21:43.530Z,2.00
2018-02-02T01:22:43.515Z,2.30
2018-02-02T01:23:43.544Z,2.70
2018-02-02T01:24:43.514Z,2.70
2018-02-02T01:25:43.484Z,2.10
2018-02-02T01:26:43.470Z,3.70
2018-02-02T01:27:43.481Z,2.00
2018-02-02T01:28:43.455Z,2.80
2018-02-02T01:29:43.460Z,2.10
2018-02-02T01:30:43.428Z,3.10
2018-02-02T01:31:43.413Z,2.40
2018-02-02T01:32:43.448Z,1.90
2018-02-02T01:33:43.396Z,2.20
2018-02-02T01:34:43.408Z,2.80
2018-02-02T01:35:43.401Z,1.70
2018-02-02T01:36:43.368Z,2.40
2018-02-02T01:37:43.348Z,2.30
2018-02-02T01:38:43.363Z,2.80
2018-02-02T01:39:43.332Z,2.80
2018-02-02T01:40:43.341Z,1.90
2018-02-02T01:41:43.328Z,2.80
2018-02-02T01:42:43.299Z,3.00
2018-02-02T01:43:43.287Z,2.30
2018-02-02T01:44:43.280Z,2.60
2018-02-02T01:45:43.270Z,1.90
2018-02-02T01:46:43.283Z,6.40
2018-02-02T01:47:43.239Z,1.60
2018-02-02T01:48:43.256Z,2.60
2018-02-02T01:49:43.223Z,2.10
2018-02-02T01:50:43.211Z,2.30
2018-02-02T01:51:43.236Z,2.40
2018-02-02T01:52:43.184Z,2.40
2018-02-02T01:53:43.215Z,1.60
2018-02-02T01:54:43.176Z,2.50
2018-02-02T01:55:43.157Z,2.50
2018-02-02T01:56:43.174Z,1.90
2018-02-02T01:57:43.137Z,2.00
2018-02-02T01:58:43.159Z,3.00
2018-02-02T01:59:43.117Z,2.70
2018-02-02T02:00:43.115Z,2.40
2018-02-02T02:01:43.120Z,3.10
2018-02-02T02:02:43.084Z,1.70
2018-02-02T02:03:43.073Z,3.90
2018-02-02T02:04:43.087Z,1.60
2018-02-02T02:05:43.064Z,2.30
2018-02-02T02:06:43.098Z,2.00
2018-02-02T02:07:43.053Z,3.30
2018-02-02T02:08:43.025Z,2.70
2018-02-02T02:09:43.042Z,2.30
2018-02-02T02:10:43.003Z,1.50
2018-02-02T02:11:42.998Z,2.20
2018-02-02T02:12:43.001Z,1.50
2018-02-02T02:13:42.968Z,1.90
2018-02-02T02:14:42.980Z,2.60
2018-02-02T02:15:42.989Z,1.40
2018-02-02T02:16:42.942Z,3.10
2018-02-02T02:17:42.948Z,2.30
2018-02-02T02:18:42.936Z,2.50
2018-02-02T02:19:42.905Z,1.90
2018-02-02T02:20:42.898Z,1.80
2018-02-02T02:21:42.890Z,1.50
2018-02-02T02:22:42.918Z,4.80
2018-02-02T02:23:42.908Z,1.90
2018-02-02T02:24:42.897Z,2.30
2018-02-02T02:25:42.851Z,1.80
2018-02-02T02:26:42.837Z,1.70
2018-02-02T02:27:42.833Z,1.40
2018-02-02T02:28:42.842Z,1.40
2018-02-02T02:29:42.819Z,2.10
2018-02-02T02:30:42.816Z,1.40
2018-02-02T02:31:42.794Z,3.00
2018-02-02T02:32:42.787Z,2.10
2018-02-02T02:33:42.805Z,1.40
2018-02-02T02:34:42.770Z,2.60
2018-02-02T02:35:42.761Z,3.20
2018-02-02T02:36:42.735Z,2.90
2018-02-02T02:37:42.733Z,1.40
2018-02-02T02:38:42.736Z,1.70
2018-02-02T02:39:42.736Z,1.80
2018-02-02T02:40:42.721Z,2.90
2018-02-02T02:41:42.682Z,3.00
2018-02-02T02:42:42.672Z,2.60
2018-02-02T02:43:42.680Z,1.40
2018-02-02T02:44:42.662Z,2.40
2018-02-02T02:45:42.637Z,1.60
2018-02-02T02:46:42.633Z,1.60
2018-02-02T02:47:42.614Z,1.60
2018-02-02T02:48:42.614Z,1.50
2018-02-02T02:49:42.622Z,1.90
2018-02-02T02:50:42.603Z,1.70
2018-02-02T02:51:42.576Z,3.00
2018-02-02T02:52:42.569Z,1.40
2018-02-02T02:53:42.552Z,2.00
2018-02-02T02:54:42.588Z,1.70
2018-02-02T02:55:42.564Z,1.90
2018-02-02T02:56:43.495Z,1.80
2018-02-02T02:57:42.521Z,1.60
2018-02-02T02:58:42.518Z,1.40
2018-02-02T02:59:42.501Z,1.50
2018-02-02T03:00:42.516Z,2.60
2018-02-02T03:01:42.499Z,3.30
2018-02-02T03:02:42.475Z,2.10
2018-02-02T03:03:42.452Z,2.80
2018-02-02T03:04:42.451Z,1.80
2018-02-02T03:05:42.446Z,2.50
2018-02-02T03:06:42.452Z,1.90
2018-02-02T03:07:42.420Z,3.50
2018-02-02T03:08:42.438Z,2.00
2018-02-02T03:09:42.402Z,1.90
2018-02-02T03:10:42.408Z,1.80
2018-02-02T03:11:42.390Z,1.90
2018-02-02T03:12:42.517Z,1.80
2018-02-02T03:13:42.345Z,1.60
2018-02-02T03:14:42.339Z,2.40
2018-02-02T03:15:42.330Z,2.50
2018-02-02T03:16:42.332Z,1.80
2018-02-02T03:17:42.326Z,2.50
2018-02-02T03:18:42.294Z,2.70
2018-02-02T03:19:42.282Z,1.50
2018-02-02T03:20:42.266Z,1.60
2018-02-02T03:21:42.285Z,2.70
2018-02-02T03:22:42.256Z,2.70
2018-02-02T03:23:42.234Z,2.10
2018-02-02T03:24:42.226Z,3.20
2018-02-02T03:25:42.243Z,2.20
2018-02-02T03:26:42.248Z,2.90
2018-02-02T03:27:42.205Z,2.10
2018-02-02T03:28:42.180Z,3.00
2018-02-02T03:29:42.174Z,3.30
2018-02-02T03:30:42.175Z,2.90
2018-02-02T03:31:42.175Z,3.20
2018-02-02T03:32:42.168Z,4.50
2018-02-02T03:33:42.132Z,1.40
2018-02-02T03:34:42.122Z,1.40
2018-02-02T03:35:42.124Z,2.00
2018-02-02T03:36:42.091Z,2.20
2018-02-02T03:37:42.107Z,3.10
2018-02-02T03:38:42.080Z,2.60
2018-02-02T03:39:42.068Z,3.10
2018-02-02T03:40:42.086Z,1.60
2018-02-02T03:41:42.046Z,2.00
2018-02-02T03:42:42.053Z,2.10
2018-02-02T03:43:42.045Z,2.00
2018-02-02T03:44:42.018Z,2.80
2018-02-02T03:45:42.001Z,2.80
2018-02-02T03:46:42.010Z,2.80
2018-02-02T03:47:41.990Z,2.00
2018-02-02T03:48:41.995Z,2.20
2018-02-02T03:49:41.964Z,1.90
2018-02-02T03:50:41.951Z,1.60
2018-02-02T03:51:41.958Z,1.90
2018-02-02T03:52:41.965Z,2.20
2018-02-02T03:53:41.943Z,3.90
2018-02-02T03:54:41.921Z,2.30
2018-02-02T03:55:41.934Z,2.20
2018-02-02T03:56:41.924Z,1.50
2018-02-02T03:57:41.878Z,2.00
2018-02-02T03:58:41.884Z,2.40
2018-02-02T03:59:41.880Z,2.20
2018-02-02T04:00:41.843Z,2.20
2018-02-02T04:01:41.828Z,2.40
2018-02-02T04:02:41.828Z,2.50
2018-02-02T04:03:41.824Z,1.80
2018-02-02T04:04:41.818Z,1.70
2018-02-02T04:05:41.806Z,1.50
2018-02-02T04:06:41.778Z,2.10
2018-02-02T04:07:41.768Z,2.00
2018-02-02T04:08:41.765Z,1.60
2018-02-02T04:09:41.736Z,1.80
2018-02-02T04:10:41.775Z,1.50
2018-02-02T04:11:41.752Z,1.80
2018-02-02T04:12:41.714Z,1.90
2018-02-02T04:13:41.705Z,2.30
2018-02-02T04:14:41.713Z,2.60
2018-02-02T04:15:41.704Z,1.30
2018-02-02T04:16:41.666Z,1.80
2018-02-02T04:17:41.675Z,1.40
2018-02-02T04:18:41.654Z,2.20
2018-02-02T04:19:41.644Z,2.50
2018-02-02T04:20:41.646Z,2.10
2018-02-02T04:21:41.629Z,1.80
2018-02-02T04:22:41.600Z,2.20
2018-02-02T04:23:41.636Z,1.50
2018-02-02T04:24:41.580Z,1.60
2018-02-02T04:25:41.591Z,3.30
2018-02-02T04:26:41.602Z,1.30
2018-02-02T04:27:41.553Z,1.40
2018-02-02T04:28:41.539Z,2.10
2018-02-02T04:29:41.526Z,2.10
2018-02-02T04:30:41.544Z,2.50
2018-02-02T04:31:41.516Z,1.90
2018-02-02T04:32:41.499Z,1.40
2018-02-02T04:33:41.498Z,1.30
2018-02-02T04:34:41.498Z,3.00
2018-02-02T04:35:41.479Z,2.60
2018-02-02T04:36:41.494Z,1.90
2018-02-02T04:37:41.449Z,1.50
2018-02-02T04:38:41.432Z,1.40
2018-02-02T04:39:41.442Z,3.80
2018-02-02T04:40:41.410Z,2.50
2018-02-02T04:41:41.471Z,1.40
2018-02-02T04:42:41.400Z,2.20
2018-02-02T04:43:41.379Z,2.90
2018-02-02T04:44:41.369Z,1.70
2018-02-02T04:45:41.395Z,1.30
2018-02-02T04:46:41.390Z,2.50
2018-02-02T04:47:41.336Z,1.60
2018-02-02T04:48:41.326Z,2.20
2018-02-02T04:49:41.315Z,1.60
2018-02-02T04:50:41.319Z,1.60
2018-02-02T04:51:41.337Z,2.00
2018-02-02T04:52:41.324Z,1.90
2018-02-02T04:53:41.279Z,1.50
2018-02-02T04:54:41.265Z,2.40
2018-02-02T04:55:41.254Z,3.10
2018-02-02T04:56:41.247Z,1.40
2018-02-02T04:57:41.262Z,2.80
2018-02-02T04:58:41.220Z,2.50
2018-02-02T04:59:41.219Z,2.00
2018-02-02T05:00:41.200Z,1.30
2018-02-02T05:01:41.187Z,2.70
2018-02-02T05:02:41.231Z,2.80
2018-02-02T05:03:41.168Z,1.50
2018-02-02T05:04:41.161Z,1.60
2018-02-02T05:05:41.148Z,2.50
2018-02-02T05:06:41.166Z,2.40
2018-02-02T05:07:41.171Z,2.20
2018-02-02T05:08:41.148Z,2.50
2018-02-02T05:09:41.105Z,2.10
2018-02-02T05:10:41.137Z,2.40
2018-02-02T05:11:41.089Z,1.30
2018-02-02T05:12:41.101Z,1.70
2018-02-02T05:13:41.070Z,1.40
2018-02-02T05:14:41.055Z,1.30
2018-02-02T05:15:41.044Z,2.30
2018-02-02T05:16:41.036Z,1.50
2018-02-02T05:17:41.022Z,1.30
2018-02-02T05:18:41.031Z,1.50
2018-02-02T05:19:41.009Z,1.30
2018-02-02T05:20:40.988Z,1.50
2018-02-02T05:21:40.980Z,2.20
2018-02-02T05:22:40.996Z,1.90
2018-02-02T05:23:40.992Z,1.80
2018-02-02T05:24:40.994Z,2.40
2018-02-02T05:25:40.940Z,2.10
2018-02-02T05:26:40.932Z,2.00
2018-02-02T05:27:40.918Z,2.70
2018-02-02T05:28:40.931Z,2.10
2018-02-02T05:29:40.933Z,1.40
2018-02-02T05:30:40.898Z,1.60
2018-02-02T05:31:40.872Z,1.50
2018-02-02T05:32:40.871Z,1.60
2018-02-02T05:33:40.877Z,2.20
2018-02-02T05:34:40.895Z,2.10
2018-02-02T05:35:40.840Z,2.20
2018-02-02T05:36:40.835Z,1.40
2018-02-02T05:37:40.853Z,1.50
2018-02-02T05:38:40.812Z,1.40
2018-02-02T05:39:40.814Z,2.40
2018-02-02T05:40:40.808Z,2.60
2018-02-02T05:41:40.781Z,1.80
2018-02-02T05:42:40.765Z,1.40
2018-02-02T05:43:40.755Z,2.80
2018-02-02T05:44:40.755Z,2.40
2018-02-02T05:45:40.748Z,3.00
2018-02-02T05:46:40.722Z,1.60
2018-02-02T05:47:40.721Z,2.40
2018-02-02T05:48:40.725Z,1.60
2018-02-02T05:49:40.694Z,2.10
2018-02-02T05:50:40.703Z,2.10
2018-02-02T05:51:40.704Z,2.50
2018-02-02T05:52:41.528Z,2.00
2018-02-02T05:53:40.644Z,1.90
2018-02-02T05:54:40.675Z,3.80
2018-02-02T05:55:40.629Z,1.90
2018-02-02T05:56:40.636Z,1.60
2018-02-02T05:57:40.607Z,2.00
2018-02-02T05:58:40.596Z,1.60
2018-02-02T05:59:40.586Z,2.20
2018-02-02T06:00:40.573Z,2.10
2018-02-02T06:01:40.583Z,2.70
2018-02-02T06:02:40.553Z,1.50
2018-02-02T06:03:40.561Z,1.90
2018-02-02T06:04:40.544Z,1.60
2018-02-02T06:05:40.524Z,2.00
2018-02-02T06:06:40.593Z,1.50
2018-02-02T06:07:40.532Z,2.40
2018-02-02T06:08:40.518Z,3.20
2018-02-02T06:09:40.482Z,2.40
2018-02-02T06:10:40.473Z,1.60
2018-02-02T06:11:40.459Z,1.40
2018-02-02T06:12:40.477Z,3.40
2018-02-02T06:13:40.450Z,1.90
2018-02-02T06:14:40.429Z,2.60
2018-02-02T06:15:40.418Z,1.70
2018-02-02T06:16:40.405Z,1.80
2018-02-02T06:17:40.420Z,2.50
2018-02-02T06:18:40.391Z,2.90
2018-02-02T06:19:40.392Z,1.60
2018-02-02T06:20:40.365Z,1.80
2018-02-02T06:21:40.358Z,2.80
2018-02-02T06:22:40.373Z,3.80
2018-02-02T06:23:40.375Z,2.90
2018-02-02T06:24:40.390Z,2.80
2018-02-02T06:25:40.310Z,2.00
2018-02-02T06:26:40.305Z,2.90
2018-02-02T06:27:40.289Z,1.90
2018-02-02T06:28:40.287Z,2.20
2018-02-02T06:29:40.287Z,2.10
2018-02-02T06:30:40.266Z,2.70
2018-02-02T06:31:40.250Z,2.20
2018-02-02T06:32:40.241Z,3.20
2018-02-02T06:33:40.234Z,2.20
2018-02-02T06:34:40.273Z,5.20
2018-02-02T06:35:40.204Z,4.10
2018-02-02T06:36:40.202Z,2.20
2018-02-02T06:37:40.220Z,3.10
2018-02-02T06:38:40.198Z,3.20
2018-02-02T06:39:40.234Z,4.40
2018-02-02T06:40:40.173Z,3.90
2018-02-02T06:41:40.298Z,2.30
2018-02-02T06:42:40.199Z,2.90
2018-02-02T06:43:40.400Z,4.00
2018-02-02T06:44:40.470Z,1.80
2018-02-02T06:45:40.138Z,1.80
2018-02-02T06:46:41.021Z,2.50
2018-02-02T06:47:40.090Z,2.50
2018-02-02T06:48:40.082Z,3.00
2018-02-02T06:49:40.068Z,4.40
2018-02-02T06:50:40.091Z,4.20
2018-02-02T06:51:40.051Z,2.70
2018-02-02T06:52:40.018Z,3.90
2018-02-02T06:53:40.021Z,2.50
2018-02-02T06:54:40.010Z,3.80
2018-02-02T06:55:40.028Z,2.40
2018-02-02T06:56:40.024Z,3.30
2018-02-02T06:57:39.985Z,3.50
2018-02-02T06:58:39.976Z,3.90
2018-02-02T06:59:39.946Z,4.60
2018-02-02T07:00:39.941Z,2.70
2018-02-02T07:01:39.966Z,3.40
2018-02-02T07:02:39.932Z,2.90
2018-02-02T07:03:39.920Z,2.40
2018-02-02T07:04:39.911Z,3.90
2018-02-02T07:05:39.897Z,3.30
2018-02-02T07:06:39.904Z,3.40
2018-02-02T07:07:39.891Z,2.70
2018-02-02T07:08:39.860Z,1.80
2018-02-02T07:09:39.852Z,2.30
2018-02-02T07:10:39.872Z,2.10
2018-02-02T07:11:39.838Z,3.00
2018-02-02T07:12:39.837Z,3.60
2018-02-02T07:13:39.815Z,2.40
2018-02-02T07:14:39.794Z,4.10
2018-02-02T07:15:39.786Z,2.00
2018-02-02T07:16:39.777Z,4.00
2018-02-02T07:17:39.792Z,2.20
2018-02-02T07:18:39.739Z,3.20
2018-02-02T07:19:39.771Z,2.50
2018-02-02T07:20:39.735Z,1.80
2018-02-02T07:21:39.726Z,2.60
2018-02-02T07:22:39.734Z,2.60
2018-02-02T07:23:39.737Z,4.30
2018-02-02T07:24:39.720Z,2.50
2018-02-02T07:25:39.704Z,2.60
2018-02-02T07:26:39.697Z,2.60
2018-02-02T07:27:39.651Z,1.90
2018-02-02T07:28:39.708Z,1.70
2018-02-02T07:29:39.633Z,8.00
2018-02-02T07:30:39.675Z,4.70
2018-02-02T07:31:39.657Z,5.70
2018-02-02T07:32:39.633Z,8.30
2018-02-02T07:33:39.607Z,7.40
2018-02-02T07:34:39.605Z,8.00
2018-02-02T07:35:39.549Z,7.90
2018-02-02T07:36:39.566Z,7.60
2018-02-02T07:37:39.557Z,9.50
2018-02-02T07:38:39.546Z,11.80
2018-02-02T07:39:39.549Z,7.60
2018-02-02T07:40:39.516Z,6.30
2018-02-02T07:41:39.547Z,5.90
2018-02-02T07:42:39.517Z,6.70
2018-02-02T07:43:39.485Z,7.70
2018-02-02T07:44:39.525Z,6.10
2018-02-02T07:45:39.469Z,9.20
2018-02-02T07:46:39.455Z,8.00
2018-02-02T07:47:39.448Z,6.70
2018-02-02T07:48:39.432Z,9.60
2018-02-02T07:49:39.440Z,7.50
2018-02-02T07:50:39.440Z,8.90
2018-02-02T07:51:39.409Z,7.80
2018-02-02T07:52:39.394Z,5.90
2018-02-02T07:53:39.379Z,8.80
2018-02-02T07:54:39.375Z,3.50
2018-02-02T07:55:39.384Z,5.50
2018-02-02T07:56:39.401Z,6.20
2018-02-02T07:57:39.361Z,9.90
2018-02-02T07:58:39.338Z,6.80
2018-02-02T07:59:39.323Z,4.20
2018-02-02T08:00:39.348Z,6.00
2018-02-02T08:01:39.308Z,4.30
2018-02-02T08:02:39.284Z,6.40
2018-02-02T08:03:39.294Z,5.80
2018-02-02T08:04:39.267Z,4.10
2018-02-02T08:05:39.279Z,5.40
2018-02-02T08:06:39.246Z,4.60
2018-02-02T08:07:39.238Z,5.20
2018-02-02T08:08:39.229Z,5.20
2018-02-02T08:09:39.205Z,4.20
2018-02-02T08:10:39.223Z,7.40
2018-02-02T08:11:39.194Z,6.50
2018-02-02T08:12:39.203Z,4.40
2018-02-02T08:13:39.224Z,3.40
2018-02-02T08:14:39.168Z,3.50
2018-02-02T08:15:39.161Z,2.90
2018-02-02T08:16:39.138Z,4.10
2018-02-02T08:17:39.120Z,4.30
2018-02-02T08:18:39.115Z,4.50
2018-02-02T08:19:39.103Z,3.70
2018-02-02T08:20:39.078Z,5.00
2018-02-02T08:21:39.115Z,4.20
2018-02-02T08:22:39.078Z,3.90
2018-02-02T08:23:39.072Z,4.90
2018-02-02T08:24:39.051Z,5.00
2018-02-02T08:25:39.612Z,3.80
2018-02-02T08:26:39.064Z,4.50
2018-02-02T08:27:39.025Z,4.90
2018-02-02T08:28:39.017Z,5.10
2018-02-02T08:29:38.992Z,3.60
2018-02-02T08:30:38.995Z,4.50
2018-02-02T08:31:38.963Z,4.40
2018-02-02T08:32:38.989Z,2.20
2018-02-02T08:33:38.936Z,2.20
2018-02-02T08:34:38.936Z,4.20
2018-02-02T08:35:38.944Z,3.00
2018-02-02T08:36:38.925Z,1.90
2018-02-02T08:37:38.950Z,4.10
2018-02-02T08:38:38.909Z,4.00
2018-02-02T08:39:38.881Z,4.30
2018-02-02T08:40:38.887Z,4.30
2018-02-02T08:41:38.862Z,2.70
2018-02-02T08:42:38.884Z,3.50
2018-02-02T08:43:38.866Z,3.00
2018-02-02T08:44:38.868Z,7.20
2018-02-02T08:45:38.848Z,5.90
2018-02-02T08:46:38.827Z,6.90
2018-02-02T08:47:38.831Z,4.70
2018-02-02T08:48:38.800Z,4.30
2018-02-02T08:49:38.814Z,6.60
2018-02-02T08:50:38.774Z,3.30
2018-02-02T08:51:38.777Z,8.10
2018-02-02T08:52:38.778Z,6.40
2018-02-02T08:53:38.732Z,4.60
2018-02-02T08:54:38.743Z,5.90
2018-02-02T08:55:38.722Z,7.80
2018-02-02T08:56:38.716Z,4.80
2018-02-02T08:57:38.739Z,5.90
2018-02-02T08:58:38.675Z,5.80
2018-02-02T08:59:38.704Z,5.00
2018-02-02T09:00:38.688Z,3.50
2018-02-02T09:01:38.677Z,5.10
2018-02-02T09:02:38.675Z,5.30
2018-02-02T09:03:38.645Z,6.70
2018-02-02T09:04:38.623Z,4.10
2018-02-02T09:05:38.646Z,4.70
2018-02-02T09:06:38.597Z,3.60
2018-02-02T09:07:38.615Z,5.80
2018-02-02T09:08:38.595Z,5.30
2018-02-02T09:09:38.581Z,4.10
2018-02-02T09:10:39.133Z,5.50
2018-02-02T09:11:38.558Z,5.50
2018-02-02T09:12:38.862Z,5.40
2018-02-02T09:13:38.535Z,6.60
2018-02-02T09:14:38.539Z,4.50
2018-02-02T09:15:38.539Z,4.00
2018-02-02T09:16:38.503Z,7.40
2018-02-02T09:17:38.522Z,5.50
2018-02-02T09:18:38.486Z,9.70
2018-02-02T09:19:38.509Z,5.20
2018-02-02T09:20:38.464Z,5.40
2018-02-02T09:21:38.492Z,8.40
2018-02-02T09:22:38.461Z,5.70
2018-02-02T09:23:39.098Z,8.10
2018-02-02T09:24:38.461Z,6.70
2018-02-02T09:25:38.415Z,4.70
2018-02-02T09:26:38.435Z,7.40
2018-02-02T09:27:38.417Z,5.00
2018-02-02T09:28:39.133Z,9.60
2018-02-02T09:29:38.345Z,10.70
2018-02-02T09:30:38.366Z,7.00
2018-02-02T09:31:38.350Z,8.70
2018-02-02T09:32:38.354Z,6.50
2018-02-02T09:33:38.355Z,7.90
2018-02-02T09:34:38.315Z,10.00
2018-02-02T09:35:38.294Z,8.50
2018-02-02T09:36:38.293Z,9.20
2018-02-02T09:37:38.281Z,6.20
2018-02-02T09:38:38.297Z,7.90
2018-02-02T09:39:38.249Z,8.90
2018-02-02T09:40:38.246Z,8.50
2018-02-02T09:41:38.255Z,7.70
2018-02-02T09:42:38.226Z,5.50
2018-02-02T09:43:38.236Z,7.20
2018-02-02T09:44:38.214Z,8.90
2018-02-02T09:45:38.190Z,6.10
2018-02-02T09:46:38.206Z,7.90
2018-02-02T09:47:38.194Z,7.00
2018-02-02T09:48:38.179Z,6.90
2018-02-02T09:49:38.171Z,5.00
2018-02-02T09:50:38.146Z,7.40
2018-02-02T09:51:38.128Z,5.20
2018-02-02T09:52:38.119Z,6.50
2018-02-02T09:53:38.119Z,9.10
2018-02-02T09:54:38.142Z,5.70
2018-02-02T09:55:38.086Z,7.00
2018-02-02T09:56:38.077Z,4.50
2018-02-02T09:57:38.045Z,6.70
2018-02-02T09:58:38.059Z,7.20
2018-02-02T09:59:38.073Z,7.20
2018-02-02T10:00:38.033Z,5.40
2018-02-02T10:01:38.033Z,5.20
2018-02-02T10:02:38.056Z,6.10
2018-02-02T10:03:38.019Z,5.10
2018-02-02T10:04:37.996Z,5.10
2018-02-02T10:05:37.996Z,7.90
2018-02-02T10:06:38.001Z,5.30
2018-02-02T10:07:37.940Z,4.80
2018-02-02T10:08:37.995Z,7.30
2018-02-02T10:09:37.938Z,6.00
2018-02-02T10:10:37.942Z,6.10
2018-02-02T10:11:37.909Z,6.20
2018-02-02T10:12:37.905Z,5.00
2018-02-02T10:13:37.895Z,8.80
2018-02-02T10:14:37.876Z,3.50
2018-02-02T10:15:37.898Z,6.90
2018-02-02T10:16:37.871Z,4.70
2018-02-02T10:17:37.871Z,3.10
2018-02-02T10:18:37.848Z,5.90
2018-02-02T10:19:37.831Z,4.90
2018-02-02T10:20:37.841Z,4.20
2018-02-02T10:21:37.812Z,5.50
2018-02-02T10:22:37.783Z,4.10
2018-02-02T10:23:38.648Z,5.10
2018-02-02T10:24:37.786Z,3.80
2018-02-02T10:25:37.805Z,5.50
2018-02-02T10:26:37.798Z,8.60
2018-02-02T10:27:37.751Z,5.50
2018-02-02T10:28:37.735Z,4.90
2018-02-02T10:29:38.658Z,2.30
2018-02-02T10:30:37.728Z,3.90
2018-02-02T10:31:37.711Z,4.80
2018-02-02T10:32:37.730Z,4.60
2018-02-02T10:33:38.671Z,4.20
2018-02-02T10:34:37.666Z,4.60
2018-02-02T10:35:37.643Z,5.00
2018-02-02T10:36:37.649Z,3.20
2018-02-02T10:37:38.610Z,3.10
2018-02-02T10:38:37.637Z,3.10
2018-02-02T10:39:37.621Z,4.00
2018-02-02T10:40:37.610Z,4.00
2018-02-02T10:41:37.626Z,4.30
2018-02-02T10:42:37.592Z,3.70
2018-02-02T10:43:37.577Z,3.70
2018-02-02T10:44:37.569Z,3.80
2018-02-02T10:45:37.554Z,4.10
2018-02-02T10:46:37.587Z,2.60
2018-02-02T10:47:37.558Z,4.40
2018-02-02T10:48:37.511Z,3.90
2018-02-02T10:49:37.539Z,2.10
2018-02-02T10:50:37.505Z,3.30
2018-02-02T10:51:37.512Z,4.00
2018-02-02T10:52:38.130Z,5.80
2018-02-02T10:53:37.473Z,3.80
2018-02-02T10:54:37.485Z,4.10
2018-02-02T10:55:37.450Z,2.50
2018-02-02T10:56:37.466Z,4.70
2018-02-02T10:57:37.426Z,3.70
2018-02-02T10:58:37.433Z,3.60
2018-02-02T10:59:37.396Z,2.80
2018-02-02T11:00:37.411Z,2.80
2018-02-02T11:01:37.408Z,3.10
2018-02-02T11:02:37.424Z,2.40
2018-02-02T11:03:37.370Z,2.30
2018-02-02T11:04:37.395Z,2.80
2018-02-02T11:05:37.390Z,3.10
2018-02-02T11:06:37.355Z,3.10
2018-02-02T11:07:37.350Z,2.20
2018-02-02T11:08:37.320Z,2.00
2018-02-02T11:09:37.311Z,2.90
2018-02-02T11:10:37.305Z,2.30
2018-02-02T11:11:37.278Z,3.40
2018-02-02T11:12:37.296Z,3.20
2018-02-02T11:13:37.308Z,3.40
2018-02-02T11:14:37.260Z,2.60
2018-02-02T11:15:37.251Z,1.80
2018-02-02T11:16:37.248Z,2.90
2018-02-02T11:17:37.290Z,2.70
2018-02-02T11:18:37.307Z,2.00
2018-02-02T11:19:37.300Z,1.70
2018-02-02T11:20:37.291Z,2.90
2018-02-02T11:21:37.274Z,2.40
2018-02-02T11:22:37.268Z,2.00
2018-02-02T11:23:37.222Z,3.40
2018-02-02T11:24:37.232Z,2.20
2018-02-02T11:25:37.235Z,2.60
2018-02-02T11:26:37.202Z,2.60
2018-02-02T11:27:37.156Z,4.30
2018-02-02T11:28:37.170Z,2.30
2018-02-02T11:29:37.115Z,2.70
2018-02-02T11:30:37.142Z,3.20
2018-02-02T11:31:37.129Z,2.30
2018-02-02T11:32:37.108Z,3.50
2018-02-02T11:33:37.074Z,1.30
2018-02-02T11:34:37.070Z,1.70
2018-02-02T11:35:37.068Z,2.00
2018-02-02T11:36:37.051Z,2.60
2018-02-02T11:37:37.037Z,2.00
2018-02-02T11:38:37.032Z,1.80
2018-02-02T11:39:37.068Z,1.70
2018-02-02T11:40:36.999Z,1.30
2018-02-02T11:41:36.992Z,2.00
2018-02-02T11:42:36.970Z,3.20
2018-02-02T11:43:37.008Z,1.70
2018-02-02T11:44:36.986Z,1.70
2018-02-02T11:45:37.676Z,1.50
2018-02-02T11:46:37.706Z,2.80
2018-02-02T11:47:36.951Z,1.90
2018-02-02T11:48:36.927Z,1.30
2018-02-02T11:49:36.979Z,3.50
2018-02-02T11:50:36.922Z,2.30
2018-02-02T11:51:36.966Z,2.10
2018-02-02T11:52:36.899Z,2.30
2018-02-02T11:53:36.875Z,4.10
2018-02-02T11:54:36.891Z,2.00
2018-02-02T11:55:36.885Z,3.10
2018-02-02T11:56:36.852Z,2.60
2018-02-02T11:57:36.809Z,1.50
2018-02-02T11:58:36.841Z,1.40
2018-02-02T11:59:36.847Z,2.50
2018-02-02T12:00:36.820Z,3.20
2018-02-02T12:01:36.808Z,1.50
2018-02-02T12:02:36.891Z,1.40
2018-02-02T12:03:36.809Z,3.10
2018-02-02T12:04:36.811Z,2.50
2018-02-02T12:05:36.785Z,1.60
2018-02-02T12:06:36.771Z,2.00
2018-02-02T12:07:36.801Z,2.20
2018-02-02T12:08:36.816Z,2.60
2018-02-02T12:09:36.705Z,2.00
2018-02-02T12:10:36.746Z,1.70
2018-02-02T12:11:36.737Z,1.80
2018-02-02T12:12:36.780Z,1.20
2018-02-02T12:13:36.728Z,1.60
2018-02-02T12:14:36.661Z,1.80
2018-02-02T12:15:36.774Z,1.80
2018-02-02T12:16:36.695Z,1.70
2018-02-02T12:17:36.667Z,1.30
2018-02-02T12:18:36.612Z,1.40
2018-02-02T12:19:36.725Z,1.80
2018-02-02T12:20:36.628Z,1.50
2018-02-02T12:21:36.572Z,1.70
2018-02-02T12:22:36.618Z,1.20
2018-02-02T12:23:36.620Z,2.50
2018-02-02T12:24:36.627Z,2.10
2018-02-02T12:25:36.655Z,1.30
2018-02-02T12:26:36.618Z,1.10
2018-02-02T12:27:37.218Z,1.80
2018-02-02T12:28:36.565Z,1.60
2018-02-02T12:29:36.566Z,1.20
2018-02-02T12:30:37.228Z,2.50
2018-02-02T12:31:36.535Z,1.70
2018-02-02T12:32:36.579Z,1.00
2018-02-02T12:33:36.462Z,2.90
2018-02-02T12:34:36.662Z,1.90
2018-02-02T12:35:41.479Z,1.60
2018-02-02T12:36:36.495Z,1.50
2018-02-02T12:37:36.449Z,1.80
2018-02-02T12:38:36.534Z,1.50
2018-02-02T12:39:36.412Z,1.20
2018-02-02T12:40:36.414Z,2.30
2018-02-02T12:41:36.414Z,2.70
2018-02-02T12:42:36.440Z,1.20
2018-02-02T12:43:36.373Z,1.20
2018-02-02T12:44:36.366Z,1.80
2018-02-02T12:45:36.467Z,1.60
2018-02-02T12:46:36.367Z,1.70
2018-02-02T12:47:36.343Z,1.20
2018-02-02T12:48:36.378Z,1.40
2018-02-02T12:49:36.363Z,1.40
2018-02-02T12:50:36.387Z,1.60
2018-02-02T12:51:36.340Z,1.40
2018-02-02T12:52:36.291Z,1.20
2018-02-02T12:53:36.416Z,2.00
2018-02-02T12:54:36.303Z,1.20
2018-02-02T12:55:36.269Z,1.50
2018-02-02T12:56:36.383Z,1.30
2018-02-02T12:57:36.363Z,1.40
2018-02-02T12:58:36.276Z,1.80
2018-02-02T12:59:36.275Z,2.50
2018-02-02T13:00:36.227Z,1.50
2018-02-02T13:01:36.164Z,1.60
2018-02-02T13:02:36.287Z,1.40
2018-02-02T13:03:36.260Z,1.50
2018-02-02T13:04:36.195Z,1.30
2018-02-02T13:05:36.281Z,1.30
2018-02-02T13:06:36.244Z,1.90
2018-02-02T13:07:36.124Z,1.20
2018-02-02T13:08:36.196Z,1.40
2018-02-02T13:09:36.103Z,1.30
2018-02-02T13:10:36.143Z,1.20
2018-02-02T13:11:36.089Z,1.70
2018-02-02T13:12:36.157Z,1.20
2018-02-02T13:13:36.163Z,0.90
2018-02-02T13:14:36.758Z,1.00
2018-02-02T13:15:36.067Z,1.20
2018-02-02T13:16:36.126Z,1.50
2018-02-02T13:17:36.762Z,1.30
2018-02-02T13:18:36.815Z,1.20